Time;durP1;ratioP1;P1;durP2;ratioP2;P2;SDS_P1;SDS_P2;PMS_P1;PMS_P2;Temp;Humidity;BMP_temperature;BMP_pressure;BME280_temperature;BME280_humidity;BME280_pressure;Samples;Min_cycle;Max_cycle;Signal;HPM_P1;HPM_P2
2021/09/05 00:00:26;;;;;;;18.85;5.85;;;;;14.30;100457.00;;;;5056590;28;20063;-75
2021/09/05 00:02:55;;;;;;;13.25;4.55;;;;;14.30;100476.00;;;;5062948;28;20052;-72
2021/09/05 00:05:25;;;;;;;18.63;7.30;;;;;14.40;100477.00;;;;5060035;28;20037;-74
2021/09/05 00:07:53;;;;;;;17.15;6.57;;;;;14.50;100468.00;;;;5056243;28;20051;-73
2021/09/05 00:10:22;;;;;;;18.67;7.70;;;;;14.50;100475.00;;;;5048451;28;20189;-75
2021/09/05 00:12:51;;;;;;;18.65;7.32;;;;;14.50;100478.00;;;;5049039;28;20095;-72
2021/09/05 00:15:20;;;;;;;14.68;4.57;;;;;14.50;100476.00;;;;5048724;28;20103;-73
2021/09/05 00:17:49;;;;;;;11.95;4.40;;;;;14.50;100465.00;;;;5048208;28;20048;-73
2021/09/05 00:20:18;;;;;;;10.02;3.33;;;;;14.40;100477.00;;;;5048033;28;20049;-74
2021/09/05 00:22:47;;;;;;;16.33;4.03;;;;;14.40;100480.00;;;;5048926;28;20053;-75
2021/09/05 00:25:16;;;;;;;5.93;3.10;;;;;14.40;100464.00;;;;5048476;28;20045;-75
2021/09/05 00:27:45;;;;;;;10.23;3.67;;;;;14.40;100474.00;;;;5047151;28;21189;-76
2021/09/05 00:30:14;;;;;;;11.35;3.50;;;;;14.50;100473.00;;;;5048428;28;20056;-72
2021/09/05 00:32:43;;;;;;;14.07;3.70;;;;;14.50;100515.00;;;;5048637;28;20048;-75
2021/09/05 00:35:12;;;;;;;11.05;3.42;;;;;14.60;100519.00;;;;5048874;28;20059;-72
2021/09/05 00:37:42;;;;;;;6.70;3.30;;;;;14.60;100516.00;;;;5047819;28;20051;-72
2021/09/05 00:40:11;;;;;;;6.65;2.85;;;;;14.50;100526.00;;;;5048341;28;20079;-73
2021/09/05 00:42:41;;;;;;;4.95;2.40;;;;;14.50;100522.00;;;;5048255;28;20045;-74
2021/09/05 00:45:10;;;;;;;11.50;3.30;;;;;14.60;100546.00;;;;5047905;28;20049;-73
2021/09/05 00:47:39;;;;;;;9.63;3.28;;;;;14.60;100532.00;;;;5048652;28;20057;-74
2021/09/05 00:50:10;;;;;;;7.68;2.70;;;;;14.60;100567.00;;;;5048460;28;20049;-72
2021/09/05 00:52:40;;;;;;;9.30;3.05;;;;;14.60;100575.00;;;;5047428;28;20059;-72
2021/09/05 00:55:10;;;;;;;4.82;2.85;;;;;14.70;100562.00;;;;5047653;28;20055;-74
2021/09/05 00:57:42;;;;;;;11.07;3.53;;;;;14.70;100575.00;;;;5052782;28;20049;-75
2021/09/05 01:00:12;;;;;;;18.90;4.18;;;;;14.80;100591.00;;;;5052981;28;20071;-73
2021/09/05 01:02:41;;;;;;;11.20;4.05;;;;;14.80;100573.00;;;;5046472;28;20083;-77
2021/09/05 01:05:11;;;;;;;8.43;3.00;;;;;14.80;100590.00;;;;5047793;28;20060;-76
2021/09/05 01:07:40;;;;;;;15.82;3.85;;;;;14.80;100568.00;;;;5047798;28;20048;-74
2021/09/05 01:10:12;;;;;;;14.75;3.53;;;;;14.80;100550.00;;;;5047224;28;20048;-76
2021/09/05 01:12:41;;;;;;;6.82;2.80;;;;;14.80;100545.00;;;;5047219;28;20443;-77
2021/09/05 01:15:11;;;;;;;11.45;3.10;;;;;14.70;100537.00;;;;5047060;28;20057;-76
2021/09/05 01:17:40;;;;;;;8.35;3.38;;;;;14.80;100546.00;;;;5047818;28;20538;-75
2021/09/05 01:20:09;;;;;;;8.75;2.97;;;;;14.80;100544.00;;;;5046979;28;20131;-76
2021/09/05 01:22:38;;;;;;;9.10;2.58;;;;;14.70;100533.00;;;;5046865;28;20140;-73
2021/09/05 01:25:08;;;;;;;11.20;3.35;;;;;14.70;100506.00;;;;5047731;28;20048;-75
2021/09/05 01:27:38;;;;;;;12.77;3.25;;;;;14.70;100488.00;;;;5047599;28;20059;-77
2021/09/05 01:30:07;;;;;;;8.07;2.90;;;;;14.70;100503.00;;;;5045798;28;20041;-72
2021/09/05 01:32:36;;;;;;;8.65;3.28;;;;;14.70;100485.00;;;;5046846;28;20045;-72
2021/09/05 01:35:06;;;;;;;9.90;3.30;;;;;14.70;100482.00;;;;5047219;28;20522;-73
2021/09/05 01:37:35;;;;;;;13.80;3.88;;;;;14.70;100474.00;;;;5046837;28;20071;-74
2021/09/05 01:40:05;;;;;;;7.63;3.10;;;;;14.70;100478.00;;;;5047371;28;20479;-75
2021/09/05 01:42:34;;;;;;;12.27;3.58;;;;;14.70;100478.00;;;;5047312;28;20044;-73
2021/09/05 01:45:03;;;;;;;8.60;3.33;;;;;14.80;100449.00;;;;5047159;28;20127;-73
2021/09/05 01:47:32;;;;;;;8.30;3.53;;;;;14.80;100454.00;;;;5046773;28;20488;-77
2021/09/05 01:50:01;;;;;;;11.00;3.70;;;;;14.80;100420.00;;;;5046611;28;20053;-75
2021/09/05 01:52:30;;;;;;;10.65;3.63;;;;;14.80;100409.00;;;;5045204;28;20059;-74
2021/09/05 01:54:59;;;;;;;12.25;3.78;;;;;14.80;100434.00;;;;5046710;28;20049;-74
2021/09/05 01:57:28;;;;;;;10.65;3.97;;;;;14.80;100413.00;;;;5046819;28;20053;-72
2021/09/05 01:59:57;;;;;;;10.82;3.80;;;;;14.80;100429.00;;;;5046571;28;20060;-76
2021/09/05 02:02:26;;;;;;;9.73;4.22;;;;;14.90;100424.00;;;;5046274;28;20649;-75
2021/09/05 02:04:55;;;;;;;11.00;4.40;;;;;14.90;100405.00;;;;5046911;28;20436;-74
2021/09/05 02:07:24;;;;;;;9.75;3.90;;;;;15.00;100409.00;;;;5046361;28;20036;-74
2021/09/05 02:09:53;;;;;;;7.65;3.78;;;;;14.90;100410.00;;;;5046721;28;20128;-73
2021/09/05 02:12:22;;;;;;;11.00;3.30;;;;;14.90;100393.00;;;;5044976;28;20151;-72
2021/09/05 02:14:51;;;;;;;13.18;3.67;;;;;14.80;100373.00;;;;5046670;28;20053;-77
2021/09/05 02:17:20;;;;;;;12.52;3.35;;;;;14.90;100367.00;;;;5046334;28;20044;-74
2021/09/05 02:19:49;;;;;;;15.82;3.72;;;;;14.90;100346.00;;;;5046179;28;20052;-73
2021/09/05 02:22:18;;;;;;;10.18;3.58;;;;;14.90;100360.00;;;;5046827;28;20395;-72
2021/09/05 02:24:47;;;;;;;8.15;3.78;;;;;14.90;100332.00;;;;5045855;28;20053;-74
2021/09/05 02:27:16;;;;;;;10.38;4.00;;;;;15.00;100333.00;;;;5046420;28;20051;-75
2021/09/05 02:29:45;;;;;;;8.15;3.58;;;;;15.00;100323.00;;;;5046261;28;20137;-72
2021/09/05 02:32:15;;;;;;;9.45;3.65;;;;;15.00;100336.00;;;;5046599;28;20134;-75
2021/09/05 02:34:44;;;;;;;12.13;3.83;;;;;15.00;100305.00;;;;5046741;28;20049;-74
2021/09/05 02:37:13;;;;;;;13.40;4.45;;;;;15.00;100322.00;;;;5045042;28;20183;-75
2021/09/05 02:39:41;;;;;;;13.55;3.95;;;;;15.00;100300.00;;;;5046759;28;20049;-76
2021/09/05 02:42:10;;;;;;;15.68;3.50;;;;;15.00;100301.00;;;;5046265;28;20047;-76
2021/09/05 02:44:39;;;;;;;14.07;3.60;;;;;15.00;100293.00;;;;5045989;28;20053;-77
2021/09/05 02:47:09;;;;;;;12.38;3.28;;;;;15.00;100289.00;;;;5045997;28;20053;-76
2021/09/05 02:49:37;;;;;;;8.55;3.97;;;;;15.00;100300.00;;;;5044951;28;20059;-76
2021/09/05 02:52:09;;;;;;;9.43;3.35;;;;;15.00;100298.00;;;;5045839;28;20773;-74
2021/09/05 02:54:39;;;;;;;14.50;3.72;;;;;15.00;100272.00;;;;5046003;28;20577;-75
2021/09/05 02:57:08;;;;;;;12.43;3.80;;;;;15.10;100281.00;;;;5046341;28;20071;-76
2021/09/05 02:59:37;;;;;;;18.17;4.22;;;;;15.10;100288.00;;;;5046004;28;20072;-77
2021/09/05 03:02:06;;;;;;;11.60;3.92;;;;;15.10;100288.00;;;;5045605;28;20057;-74
2021/09/05 03:04:35;;;;;;;11.93;4.22;;;;;15.20;100266.00;;;;5045813;28;20446;-73
2021/09/05 03:07:04;;;;;;;14.68;4.32;;;;;15.20;100264.00;;;;5045680;28;20057;-73
2021/09/05 03:09:34;;;;;;;12.35;5.43;;;;;15.30;100266.00;;;;5046432;28;20140;-74
2021/09/05 03:12:03;;;;;;;14.52;5.95;;;;;15.30;100263.00;;;;5045219;28;20088;-74
2021/09/05 03:14:32;;;;;;;14.57;5.95;;;;;15.30;100233.00;;;;5049286;28;20064;-72
2021/09/05 03:17:01;;;;;;;21.05;6.35;;;;;15.30;100239.00;;;;5049787;28;20492;-74
2021/09/05 03:19:30;;;;;;;13.80;5.60;;;;;15.30;100234.00;;;;5047381;28;20045;-77
2021/09/05 03:21:59;;;;;;;21.88;5.60;;;;;15.30;100267.00;;;;5047557;28;20055;-76
2021/09/05 03:24:28;;;;;;;10.30;4.20;;;;;15.20;100315.00;;;;5047624;28;20045;-77
2021/09/05 03:26:57;;;;;;;9.82;4.10;;;;;15.30;100435.00;;;;5050224;28;20494;-75
2021/09/05 03:29:26;;;;;;;15.23;3.78;;;;;15.10;100454.00;;;;5049591;28;20541;-76
2021/09/05 03:31:55;;;;;;;34.63;4.88;;;;;14.90;100458.00;;;;5048293;28;20048;-77
2021/09/05 03:34:24;;;;;;;20.50;3.72;;;;;14.80;100466.00;;;;5050282;28;20049;-71
2021/09/05 03:36:53;;;;;;;11.25;3.35;;;;;14.80;100472.00;;;;5049248;28;20049;-74
2021/09/05 03:39:22;;;;;;;9.38;2.95;;;;;14.70;100450.00;;;;5049750;28;20049;-74
2021/09/05 03:41:51;;;;;;;24.15;3.60;;;;;14.70;100351.00;;;;5048746;28;20071;-73
2021/09/05 03:44:19;;;;;;;22.55;3.42;;;;;14.70;100288.00;;;;5049106;28;20436;-72
2021/09/05 03:46:49;;;;;;;32.60;4.65;;;;;14.70;100292.00;;;;5049714;28;20606;-76
2021/09/05 03:49:18;;;;;;;7.88;2.70;;;;;14.70;100342.00;;;;5049763;28;20052;-73
2021/09/05 03:51:47;;;;;;;8.23;2.90;;;;;14.70;100331.00;;;;5049676;28;20052;-74
2021/09/05 03:54:16;;;;;;;12.18;3.45;;;;;14.70;100360.00;;;;5048795;28;20056;-76
2021/09/05 03:56:45;;;;;;;6.25;2.72;;;;;14.70;100413.00;;;;5047367;28;20063;-75
2021/09/05 03:59:14;;;;;;;7.97;3.20;;;;;14.80;100403.00;;;;5046352;28;20124;-73
2021/09/05 04:01:43;;;;;;;10.18;3.20;;;;;14.80;100385.00;;;;5048680;28;20136;-75
2021/09/05 04:04:12;;;;;;;6.47;2.78;;;;;14.80;100409.00;;;;5049157;28;20053;-76
2021/09/05 04:06:44;;;;;;;7.28;2.25;;;;;14.80;100413.00;;;;5049183;28;20500;-75
2021/09/05 04:10:08;;;;;;;8.23;2.42;;;;;14.80;100392.00;;;;5048896;28;20104;-75
2021/09/05 04:12:01;;;;;;;9.32;2.42;;;;;14.80;100394.00;;;;5047298;28;20422;-73
2021/09/05 04:14:31;;;;;;;9.18;3.05;;;;;14.80;100363.00;;;;5047004;28;20147;-73
2021/09/05 04:17:01;;;;;;;6.22;2.67;;;;;14.70;100338.00;;;;5048736;28;20053;-73
2021/09/05 04:19:30;;;;;;;6.15;2.75;;;;;14.70;100333.00;;;;5048166;28;20076;-73
2021/09/05 04:21:59;;;;;;;4.70;2.33;;;;;14.70;100315.00;;;;5048924;28;20049;-73
2021/09/05 04:24:28;;;;;;;3.58;2.20;;;;;14.70;100313.00;;;;5047944;28;20073;-75
2021/09/05 04:26:58;;;;;;;2.70;2.00;;;;;14.60;100340.00;;;;5046873;28;20060;-73
2021/09/05 04:29:26;;;;;;;6.85;2.47;;;;;14.60;100324.00;;;;5047950;28;20047;-73
2021/09/05 04:31:55;;;;;;;7.43;2.80;;;;;14.70;100332.00;;;;5047679;28;20053;-73
2021/09/05 04:34:24;;;;;;;4.18;2.42;;;;;14.70;100314.00;;;;5048426;28;20088;-74
2021/09/05 04:36:53;;;;;;;9.00;2.33;;;;;14.70;100323.00;;;;5048100;28;20045;-75
2021/09/05 04:39:22;;;;;;;4.97;2.35;;;;;14.70;100302.00;;;;5045543;28;20088;-72
2021/09/05 04:41:51;;;;;;;5.45;2.30;;;;;14.70;100321.00;;;;5048333;28;20071;-73
2021/09/05 04:44:20;;;;;;;4.20;1.90;;;;;14.70;100308.00;;;;5047887;28;20059;-75
2021/09/05 04:46:49;;;;;;;6.40;2.45;;;;;14.70;100300.00;;;;5048069;28;20052;-73
2021/09/05 04:49:18;;;;;;;5.72;2.55;;;;;14.70;100298.00;;;;5048006;28;20055;-72
2021/09/05 04:51:47;;;;;;;5.47;2.53;;;;;14.70;100285.00;;;;5048110;28;20060;-73
2021/09/05 04:54:16;;;;;;;4.32;2.05;;;;;14.70;100312.00;;;;5046798;28;20063;-72
2021/09/05 04:56:45;;;;;;;3.97;2.00;;;;;14.70;100314.00;;;;5047559;28;20084;-72
2021/09/05 04:59:14;;;;;;;5.10;2.38;;;;;14.70;100304.00;;;;5048055;28;20049;-72
2021/09/05 05:01:43;;;;;;;3.83;2.08;;;;;14.60;100301.00;;;;5046725;28;20057;-73
2021/09/05 05:04:12;;;;;;;5.18;2.20;;;;;14.50;100305.00;;;;5047402;28;20486;-74
2021/09/05 05:06:42;;;;;;;5.97;1.90;;;;;14.50;100310.00;;;;5048131;28;20045;-72
2021/09/05 05:09:12;;;;;;;7.03;2.03;;;;;14.50;100307.00;;;;5047360;28;20087;-73
2021/09/05 05:11:43;;;;;;;5.40;1.92;;;;;14.50;100285.00;;;;5046544;28;20049;-72
2021/09/05 05:14:13;;;;;;;3.55;1.92;;;;;14.40;100274.00;;;;5047220;28;20218;-72
2021/09/05 05:16:42;;;;;;;6.10;2.28;;;;;14.40;100299.00;;;;5047425;28;20049;-73
2021/09/05 05:19:11;;;;;;;8.35;2.13;;;;;14.40;100279.00;;;;5047302;28;20049;-75
2021/09/05 05:21:41;;;;;;;10.45;2.15;;;;;14.40;100311.00;;;;5045643;28;20045;-75
2021/09/05 05:24:10;;;;;;;6.88;3.13;;;;;14.30;100293.00;;;;5046498;28;20045;-74
2021/09/05 05:26:39;;;;;;;10.73;1.95;;;;;14.30;100296.00;;;;5046103;28;20087;-75
2021/09/05 05:29:08;;;;;;;10.07;2.63;;;;;14.20;100302.00;;;;5047491;28;20067;-71
2021/09/05 05:31:36;;;;;;;5.43;1.98;;;;;14.10;100282.00;;;;5047573;28;20060;-71
2021/09/05 05:34:05;;;;;;;4.05;2.10;;;;;14.20;100306.00;;;;5046395;28;20052;-74
2021/09/05 05:36:35;;;;;;;6.10;2.50;;;;;14.30;100286.00;;;;5046257;28;20055;-72
2021/09/05 05:39:04;;;;;;;7.63;2.55;;;;;14.40;100289.00;;;;5046201;28;20049;-75
2021/09/05 05:41:33;;;;;;;4.95;2.30;;;;;14.40;100281.00;;;;5047462;28;20072;-75
2021/09/05 05:44:02;;;;;;;6.43;2.50;;;;;14.40;100264.00;;;;5046478;28;20397;-74
2021/09/05 05:46:31;;;;;;;4.60;2.00;;;;;14.30;100269.00;;;;5047226;28;20045;-77
2021/09/05 05:49:00;;;;;;;6.85;2.15;;;;;14.40;100252.00;;;;5046463;28;20049;-73
2021/09/05 05:51:29;;;;;;;6.90;2.10;;;;;14.30;100277.00;;;;5047076;28;20072;-75
2021/09/05 05:53:58;;;;;;;4.93;1.98;;;;;14.30;100259.00;;;;5046722;28;20064;-72
2021/09/05 05:56:27;;;;;;;7.70;2.75;;;;;14.40;100254.00;;;;5046721;28;20045;-73
2021/09/05 05:58:56;;;;;;;3.95;2.00;;;;;14.40;100267.00;;;;5044710;28;20052;-74
2021/09/05 06:01:25;;;;;;;5.85;2.10;;;;;14.30;100257.00;;;;5046014;28;20047;-75
2021/09/05 06:03:55;;;;;;;7.90;2.28;;;;;14.20;100267.00;;;;5046894;28;20503;-77
2021/09/05 06:06:23;;;;;;;8.00;2.42;;;;;14.20;100230.00;;;;5044951;28;20060;-74
2021/09/05 06:08:53;;;;;;;5.93;2.35;;;;;14.10;100244.00;;;;5047585;28;20048;-75
2021/09/05 06:11:22;;;;;;;8.55;2.30;;;;;14.10;100263.00;;;;5046247;28;20500;-74
2021/09/05 06:13:51;;;;;;;6.50;2.45;;;;;14.00;100255.00;;;;5045450;28;20052;-75
2021/09/05 06:16:20;;;;;;;7.90;2.72;;;;;14.10;100248.00;;;;5046283;28;20049;-73
2021/09/05 06:18:49;;;;;;;9.50;3.72;;;;;14.10;100240.00;;;;5046945;28;20470;-76
2021/09/05 06:21:18;;;;;;;7.88;3.38;;;;;14.10;100254.00;;;;5046840;28;20045;-77
2021/09/05 06:23:47;;;;;;;8.13;2.83;;;;;14.10;100235.00;;;;5046901;28;20136;-75
2021/09/05 06:26:16;;;;;;;6.75;2.97;;;;;14.00;100222.00;;;;5045906;28;20049;-73
2021/09/05 06:28:45;;;;;;;10.40;3.25;;;;;14.00;100217.00;;;;5046216;28;20053;-74
2021/09/05 06:31:14;;;;;;;13.52;3.80;;;;;14.00;100234.00;;;;5046208;28;20416;-73
2021/09/05 06:33:43;;;;;;;13.68;3.80;;;;;14.00;100197.00;;;;5045970;28;20420;-76
2021/09/05 06:36:12;;;;;;;8.68;4.30;;;;;14.00;100221.00;;;;5046774;28;20082;-73
2021/09/05 06:38:41;;;;;;;10.32;4.63;;;;;14.00;100211.00;;;;5046316;28;20045;-75
2021/09/05 06:41:10;;;;;;;14.27;4.68;;;;;14.00;100229.00;;;;5043989;28;20055;-77
2021/09/05 06:43:38;;;;;;;16.65;4.68;;;;;14.00;100223.00;;;;5045707;28;20447;-74
2021/09/05 06:46:07;;;;;;;12.32;5.53;;;;;14.00;100221.00;;;;5045869;28;20095;-75
2021/09/05 06:48:42;;;;;;;11.02;5.40;;;;;14.00;100207.00;;;;5045746;28;20053;-75
2021/09/05 06:51:11;;;;;;;12.73;5.47;;;;;14.00;100223.00;;;;5046056;28;20565;-75
2021/09/05 06:53:40;;;;;;;14.43;5.65;;;;;14.10;100200.00;;;;5045146;28;20041;-73
2021/09/05 06:56:10;;;;;;;9.00;5.00;;;;;14.00;100219.00;;;;5045584;28;20045;-74
2021/09/05 06:58:39;;;;;;;15.27;5.55;;;;;14.00;100210.00;;;;5046026;28;20049;-73
2021/09/05 07:01:08;;;;;;;11.07;5.03;;;;;14.00;100238.00;;;;5044970;28;20052;-73
2021/09/05 07:03:38;;;;;;;15.10;5.13;;;;;13.90;100207.00;;;;5045645;28;20136;-72
2021/09/05 07:06:07;;;;;;;11.73;4.22;;;;;13.90;100211.00;;;;5045633;28;20546;-76
2021/09/05 07:08:36;;;;;;;10.60;4.25;;;;;13.90;100207.00;;;;5045914;28;20057;-75
2021/09/05 07:11:05;;;;;;;8.60;4.25;;;;;14.00;100241.00;;;;5045977;28;20049;-74
2021/09/05 07:13:34;;;;;;;9.43;4.25;;;;;14.00;100220.00;;;;5045587;28;20431;-74
2021/09/05 07:16:03;;;;;;;12.65;4.75;;;;;14.00;100246.00;;;;5045683;28;20052;-76
2021/09/05 07:18:32;;;;;;;13.32;5.00;;;;;14.00;100221.00;;;;5045181;28;20049;-73
2021/09/05 07:21:01;;;;;;;10.05;5.05;;;;;14.00;100241.00;;;;5045635;28;20053;-75
2021/09/05 07:23:32;;;;;;;9.00;4.88;;;;;14.00;100237.00;;;;5046176;28;20067;-74
2021/09/05 07:26:02;;;;;;;12.32;5.30;;;;;14.00;100223.00;;;;5044906;28;20056;-75
2021/09/05 07:28:33;;;;;;;12.27;5.47;;;;;14.10;100245.00;;;;5046001;28;20049;-77
2021/09/05 07:31:03;;;;;;;14.65;6.30;;;;;14.10;100257.00;;;;5045874;28;20080;-74
2021/09/05 07:33:33;;;;;;;15.63;6.72;;;;;14.20;100252.00;;;;5046318;28;20059;-73
2021/09/05 07:36:03;;;;;;;16.52;7.57;;;;;14.20;100254.00;;;;5045503;28;20049;-73
2021/09/05 07:38:31;;;;;;;19.52;8.60;;;;;14.20;100254.00;;;;5045743;28;20057;-71
2021/09/05 07:41:00;;;;;;;20.85;9.32;;;;;14.20;100262.00;;;;5045712;28;20060;-75
2021/09/05 07:43:29;;;;;;;15.85;7.65;;;;;14.20;100271.00;;;;5045115;28;20128;-74
2021/09/05 07:45:58;;;;;;;20.10;6.80;;;;;14.20;100266.00;;;;5046213;28;20476;-71
2021/09/05 07:48:27;;;;;;;14.45;5.80;;;;;14.10;100255.00;;;;5045649;28;20060;-75
2021/09/05 07:50:56;;;;;;;19.67;6.28;;;;;14.10;100271.00;;;;5046054;28;20045;-74
2021/09/05 07:53:25;;;;;;;14.48;5.85;;;;;14.10;100279.00;;;;5045829;28;20068;-71
2021/09/05 07:55:54;;;;;;;14.98;5.65;;;;;14.10;100290.00;;;;5045279;28;20068;-72
2021/09/05 07:58:27;;;;;;;10.50;5.18;;;;;14.00;100275.00;;;;5045609;28;20091;-75
2021/09/05 08:00:56;;;;;;;14.23;5.72;;;;;13.90;100301.00;;;;5049032;28;20053;-73
2021/09/05 08:03:25;;;;;;;13.93;3.97;;;;;13.90;100294.00;;;;5049086;28;20056;-74
2021/09/05 08:05:54;;;;;;;8.13;4.45;;;;;13.80;100302.00;;;;5049216;28;20072;-75
2021/09/05 08:08:23;;;;;;;8.63;4.10;;;;;13.90;100275.00;;;;5049163;28;20098;-74
2021/09/05 08:10:53;;;;;;;8.73;3.88;;;;;13.90;100292.00;;;;5048922;28;20393;-75
2021/09/05 08:13:22;;;;;;;11.05;4.53;;;;;13.90;100312.00;;;;5048856;28;20053;-75
2021/09/05 08:15:51;;;;;;;13.43;4.32;;;;;13.90;100319.00;;;;5048591;28;20049;-73
2021/09/05 08:18:20;;;;;;;9.95;5.22;;;;;13.90;100312.00;;;;5049218;28;20049;-73
2021/09/05 08:20:49;;;;;;;10.27;4.45;;;;;14.00;100310.00;;;;5049090;28;20526;-73
2021/09/05 08:23:18;;;;;;;11.88;4.50;;;;;14.00;100307.00;;;;5048281;28;20538;-72
2021/09/05 08:25:46;;;;;;;12.52;4.82;;;;;14.00;100339.00;;;;5049393;28;20056;-73
2021/09/05 08:28:15;;;;;;;20.05;5.05;;;;;14.00;100349.00;;;;5047599;28;20487;-76
2021/09/05 08:30:45;;;;;;;11.20;4.20;;;;;14.10;100338.00;;;;5048705;28;20538;-75
2021/09/05 08:33:18;;;;;;;10.98;4.57;;;;;14.10;100351.00;;;;5048329;28;20076;-72
2021/09/05 08:35:47;;;;;;;10.32;4.75;;;;;14.10;100339.00;;;;5047994;28;20067;-74
2021/09/05 08:38:16;;;;;;;8.85;4.43;;;;;14.10;100346.00;;;;5048289;28;20057;-73
2021/09/05 08:40:48;;;;;;;12.45;4.40;;;;;14.00;100347.00;;;;5048182;28;20053;-74
2021/09/05 08:43:20;;;;;;;8.57;4.40;;;;;14.00;100356.00;;;;5048227;28;20044;-75
2021/09/05 08:45:49;;;;;;;10.20;4.40;;;;;14.10;100355.00;;;;5048644;28;20049;-73
2021/09/05 08:48:20;;;;;;;9.10;4.63;;;;;14.10;100372.00;;;;5048082;28;20148;-75
2021/09/05 08:50:52;;;;;;;10.02;4.97;;;;;14.10;100381.00;;;;5048337;28;20056;-72
2021/09/05 08:53:21;;;;;;;14.40;4.35;;;;;14.10;100384.00;;;;5048145;28;20049;-71
2021/09/05 08:55:50;;;;;;;12.18;5.72;;;;;14.10;100386.00;;;;5047745;28;20587;-73
2021/09/05 08:58:20;;;;;;;15.25;5.70;;;;;14.10;100376.00;;;;5048286;28;20045;-72
2021/09/05 09:00:48;;;;;;;21.30;7.25;;;;;14.10;100401.00;;;;5048124;28;20044;-74
2021/09/05 09:03:23;;;;;;;23.60;9.10;;;;;14.20;100419.00;;;;5048909;28;20126;-74
2021/09/05 09:05:54;;;;;;;28.20;10.45;;;;;14.30;100398.00;;;;5048078;28;20095;-73
2021/09/05 09:08:24;;;;;;;41.22;11.55;;;;;14.30;100413.00;;;;5048460;28;20045;-75
2021/09/05 09:10:54;;;;;;;22.27;9.77;;;;;14.30;100414.00;;;;5047959;28;20053;-73
2021/09/05 09:13:37;;;;;;;23.88;9.57;;;;;14.30;100396.00;;;;5047514;28;20053;-70
2021/09/05 09:16:14;;;;;;;31.08;10.45;;;;;14.30;100423.00;;;;5047848;28;20071;-74
2021/09/05 09:18:44;;;;;;;25.45;10.23;;;;;14.20;100399.00;;;;5046735;28;20053;-74
2021/09/05 09:21:18;;;;;;;29.88;11.02;;;;;14.20;100416.00;;;;5047658;28;20080;-73
2021/09/05 09:23:50;;;;;;;33.65;10.85;;;;;14.30;100401.00;;;;5047583;28;20053;-73
2021/09/05 09:26:19;;;;;;;26.23;10.60;;;;;14.30;100413.00;;;;5047487;28;20496;-74
2021/09/05 09:28:51;;;;;;;38.08;11.88;;;;;14.20;100412.00;;;;5046284;28;20087;-74
2021/09/05 09:31:27;;;;;;;27.95;11.82;;;;;14.30;100412.00;;;;5046020;28;20424;-72
2021/09/05 09:33:59;;;;;;;33.10;11.82;;;;;14.30;100383.00;;;;5047295;28;20408;-72
2021/09/05 09:36:28;;;;;;;;;;;;;14.30;100407.00;;;;5047812;28;20052;-73
2021/09/05 09:39:01;;;;;;;38.85;12.95;;;;;14.30;100415.00;;;;5047136;28;19920;-74
2021/09/05 09:41:33;;;;;;;31.52;12.73;;;;;14.40;100415.00;;;;5047636;28;20052;-74
2021/09/05 09:44:07;;;;;;;33.45;12.10;;;;;14.40;100389.00;;;;5047183;28;20052;-77
2021/09/05 09:46:38;;;;;;;31.92;14.15;;;;;14.40;100402.00;;;;5047022;28;20044;-74
2021/09/05 09:49:09;;;;;;;36.55;13.43;;;;;14.40;100390.00;;;;5047303;28;20080;-71
2021/09/05 09:51:40;;;;;;;41.65;14.93;;;;;14.40;100380.00;;;;5045170;28;20052;-73
2021/09/05 09:54:09;;;;;;;41.83;14.30;;;;;14.50;100409.00;;;;5046979;28;20530;-72
2021/09/05 09:56:38;;;;;;;34.47;13.70;;;;;14.50;100405.00;;;;5046980;28;20057;-72
2021/09/05 09:59:07;;;;;;;35.58;14.65;;;;;14.50;100388.00;;;;5047140;28;20056;-73
2021/09/05 10:01:43;;;;;;;32.90;15.75;;;;;14.50;100401.00;;;;5046725;28;20107;-74
2021/09/05 10:04:13;;;;;;;43.95;15.57;;;;;14.50;100383.00;;;;5046792;28;20099;-75
2021/09/05 10:06:44;;;;;;;38.33;15.43;;;;;14.50;100408.00;;;;5046865;28;20053;-75
2021/09/05 10:09:18;;;;;;;53.17;17.30;;;;;14.60;100414.00;;;;5046970;28;20063;-72
2021/09/05 10:11:47;;;;;;;41.20;16.05;;;;;14.60;100401.00;;;;5046299;28;20052;-75
2021/09/05 10:14:17;;;;;;;36.10;16.13;;;;;14.50;100417.00;;;;5046316;28;20053;-72
2021/09/05 10:16:46;;;;;;;40.80;15.90;;;;;14.60;100410.00;;;;5046859;28;20049;-76
2021/09/05 10:19:15;;;;;;;46.88;17.58;;;;;14.60;100400.00;;;;5046843;28;20056;-75
2021/09/05 10:21:45;;;;;;;43.53;16.50;;;;;14.60;100412.00;;;;5046027;28;20057;-74
2021/09/05 10:24:16;;;;;;;41.40;17.40;;;;;14.70;100416.00;;;;5046289;28;20040;-74
2021/09/05 10:27:03;;;;;;;;;;;;;14.70;100419.00;;;;5047614;28;20057;-74
2021/09/05 10:29:32;;;;;;;45.03;16.27;;;;;14.70;100397.00;;;;5046827;28;19932;-75
2021/09/05 10:32:03;;;;;;;42.30;17.35;;;;;14.70;100434.00;;;;5046474;28;20052;-74
2021/09/05 10:34:35;;;;;;;46.10;16.38;;;;;14.70;100426.00;;;;5046634;28;20053;-72
2021/09/05 10:37:12;;;;;;;42.38;16.73;;;;;14.70;100414.00;;;;5046344;28;20641;-75
2021/09/05 10:40:09;;;;;;;42.67;17.67;;;;;14.70;100438.00;;;;5044700;28;20053;-75
2021/09/05 10:42:56;;;;;;;43.75;17.13;;;;;14.70;100419.00;;;;5046076;28;20136;-74
2021/09/05 10:45:26;;;;;;;55.92;18.80;;;;;14.80;100447.00;;;;5046628;28;20064;-72
2021/09/05 10:47:55;;;;;;;57.92;18.67;;;;;14.90;100426.00;;;;5045978;28;20045;-73
2021/09/05 10:50:38;;;;;;;53.85;18.88;;;;;15.00;100454.00;;;;5046613;28;20508;-74
2021/09/05 10:53:18;;;;;;;45.20;18.17;;;;;15.10;100457.00;;;;5046520;28;20075;-73
2021/09/05 10:56:08;;;;;;;54.72;20.83;;;;;15.20;100465.00;;;;5046463;28;20088;-72
2021/09/05 10:58:55;;;;;;;38.92;18.88;;;;;15.20;100470.00;;;;5046343;28;20055;-73
2021/09/05 11:01:29;;;;;;;47.35;21.42;;;;;15.10;100454.00;;;;5045297;28;20060;-72
2021/09/05 11:04:16;;;;;;;48.67;21.63;;;;;15.10;100469.00;;;;5045924;28;20463;-76
2021/09/05 11:07:01;;;;;;;49.50;20.25;;;;;15.10;100453.00;;;;5045592;28;20049;-71
2021/09/05 11:09:30;;;;;;;49.58;22.33;;;;;15.20;100481.00;;;;5046434;28;20052;-74
2021/09/05 11:12:04;;;;;;;49.65;21.15;;;;;15.30;100468.00;;;;5045660;28;20040;-75
2021/09/05 11:14:57;;;;;;;40.65;20.50;;;;;15.20;100488.00;;;;5045929;28;20481;-72
2021/09/05 11:17:30;;;;;;;41.92;20.20;;;;;15.30;100499.00;;;;5045721;28;20057;-71
2021/09/05 11:20:09;;;;;;;42.25;19.00;;;;;15.20;100507.00;;;;5044690;28;20137;-74
2021/09/05 11:22:45;;;;;;;47.53;18.25;;;;;15.30;100508.00;;;;5045617;28;20048;-72
2021/09/05 11:25:18;;;;;;;56.28;19.23;;;;;15.40;100510.00;;;;5046374;28;20063;-73
2021/09/05 11:27:55;;;;;;;41.65;18.40;;;;;15.40;100514.00;;;;5045791;28;20052;-76
2021/09/05 11:30:48;;;;;;;44.13;17.92;;;;;15.30;100505.00;;;;5045876;28;20080;-72
2021/09/05 11:33:17;;;;;;;43.13;18.67;;;;;15.30;100513.00;;;;5046213;28;20047;-74
2021/09/05 11:35:49;;;;;;;45.38;19.58;;;;;15.40;100525.00;;;;5049782;28;20135;-76
2021/09/05 11:38:18;;;;;;;43.63;19.20;;;;;15.40;100548.00;;;;5049622;28;20049;-72
2021/09/05 11:40:52;;;;;;;37.28;18.20;;;;;15.40;100524.00;;;;5049630;28;20144;-74
2021/09/05 11:43:31;;;;;;;27.88;14.68;;;;;15.30;100535.00;;;;5049486;28;20049;-71
2021/09/05 11:46:18;;;;;;;32.40;16.70;;;;;15.40;100531.00;;;;5049965;28;20052;-73
2021/09/05 11:48:58;;;;;;;23.35;13.48;;;;;15.30;100524.00;;;;5049478;28;20118;-72
2021/09/05 11:51:28;;;;;;;29.02;14.32;;;;;15.40;100509.00;;;;5049177;28;20405;-73
2021/09/05 11:53:56;;;;;;;29.58;13.88;;;;;15.50;100530.00;;;;5049881;28;20055;-73
2021/09/05 11:56:29;;;;;;;20.77;13.13;;;;;15.50;100531.00;;;;5049738;28;20052;-74
2021/09/05 11:59:12;;;;;;;27.58;12.35;;;;;15.60;100530.00;;;;5049343;28;20045;-75
2021/09/05 12:01:50;;;;;;;22.60;13.07;;;;;15.40;100537.00;;;;5049501;28;20045;-73
2021/09/05 12:04:20;;;;;;;23.80;13.20;;;;;15.50;100538.00;;;;5049852;28;20087;-72
2021/09/05 12:06:50;;;;;;;31.90;13.75;;;;;15.50;100529.00;;;;5049232;28;20590;-73
2021/09/05 12:09:33;;;;;;;27.73;13.65;;;;;15.50;100551.00;;;;5048808;28;20055;-74
2021/09/05 12:12:04;;;;;;;15.57;10.52;;;;;15.40;100537.00;;;;5049108;28;20071;-76
2021/09/05 12:14:35;;;;;;;17.63;10.95;;;;;15.40;100537.00;;;;5049225;28;20052;-74
2021/09/05 12:17:43;;;;;;;24.45;11.48;;;;;15.40;100541.00;;;;5049088;28;20130;-75